createdAt,value
2024-02-17T10:08:48.645Z,647.255033557047
2024-02-17T10:14:11.924Z,588.9865771812081
2024-02-17T10:18:00.290Z,505.28859060402687
2024-02-17T10:21:21.204Z,395.77852348993287
2024-02-17T10:33:07.195Z,298.5704697986577
2024-02-17T10:36:28.329Z,248.5771812080537
2024-02-17T10:39:49.174Z,301.0872483221477
2024-02-17T10:43:09.017Z,275.3959731543624
2024-02-17T10:46:29.199Z,246.70469798657717
2024-02-17T10:51:36.443Z,184.51006711409397
2024-02-17T10:54:57.531Z,294.9261744966443
2024-02-17T10:58:17.562Z,313.69127516778525
2024-02-17T11:01:39.746Z,253.6510067114094
2024-02-17T11:05:00.696Z,269.7986577181208
2024-02-17T11:08:20.508Z,265.9530201342282
2024-02-17T11:11:41.600Z,305.5771812080537
2024-02-17T11:15:01.984Z,368.4161073825503
2024-02-17T11:18:37.890Z,285.1006711409396
2024-02-17T11:21:58.802Z,187.5503355704698
2024-02-17T11:25:18.931Z,192.5234899328859
2024-02-17T11:28:39.091Z,173.85906040268458
2024-02-17T11:31:59.888Z,232.3489932885906
2024-02-17T11:35:19.457Z,273.1409395973154
2024-02-17T11:38:40.302Z,315.241610738255
2024-02-17T11:42:00.871Z,268.6510067114094
2024-02-17T11:45:20.991Z,289.89261744966444
2024-02-17T11:48:41.766Z,591.7046979865772
2024-02-17T11:52:01.639Z,660.3221476510067
2024-02-17T12:03:27.460Z,473.2953020134228
2024-02-17T12:06:48.450Z,365.13422818791946
2024-02-17T12:10:08.400Z,348.5234899328859
2024-02-17T12:13:28.502Z,365.61744966442956
2024-02-17T12:16:48.493Z,327.7248322147651
2024-02-17T12:20:09.203Z,246.24161073825502
2024-02-17T12:23:29.037Z,256.40939597315435
2024-02-17T12:26:49.705Z,233.05369127516778
2024-02-17T12:30:10.116Z,293.1543624161074
2024-02-17T12:33:31.071Z,449.53691275167785
2024-02-17T12:37:56.829Z,371.4765100671141
2024-02-17T12:41:17.184Z,326.13422818791946
2024-02-17T12:44:37.636Z,267.5436241610738
2024-02-17T12:47:57.981Z,212.8993288590604
2024-02-17T12:53:05.442Z,999.48322147651
2024-02-17T12:56:26.427Z,453.7248322147651
2024-02-17T13:01:56.459Z,416.53691275167785
2024-02-17T13:05:16.560Z,205.89261744966444
2024-02-17T13:08:36.677Z,212.01342281879195
2024-02-17T13:11:57.249Z,344.4765100671141
2024-02-17T13:15:16.759Z,245.19463087248323
2024-02-17T13:18:38.347Z,227.43624161073825
2024-02-17T13:21:58.306Z,215.21476510067114
2024-02-17T13:25:18.939Z,256.71140939597313
2024-02-17T13:28:39.502Z,269.5771812080537
2024-02-17T13:31:59.461Z,296.83892617449663
2024-02-17T13:35:19.746Z,273.4429530201342
2024-02-17T13:38:40.606Z,439.20805369127515
2024-02-17T13:42:00.873Z,412.51006711409394
2024-02-17T13:45:21.824Z,293.3959731543624
2024-02-17T13:48:43.469Z,269.7986577181208
2024-02-17T13:52:03.602Z,259.248322147651
2024-02-17T13:55:44.496Z,311.73825503355704
2024-02-17T13:59:04.940Z,402.1006711409396
2024-02-17T14:02:25.103Z,456.26174496644296
2024-02-17T14:05:45.935Z,483.32214765100673
2024-02-17T14:09:06.665Z,547.1275167785235
2024-02-17T14:12:26.318Z,574.2080536912752
2024-02-17T14:15:46.708Z,664.771812080537
2024-02-17T14:19:07.705Z,695.4362416107383
2024-02-17T14:23:51.540Z,329.09395973154363
2024-02-17T14:27:11.660Z,263.5973154362416
2024-02-17T14:30:33.245Z,351.22147651006713
2024-02-17T14:33:54.585Z,311.71812080536915
2024-02-17T14:37:15.151Z,230.7785234899329
2024-02-17T14:40:36.458Z,325.7315436241611
2024-02-17T14:43:57.352Z,296.91946308724835
2024-02-17T14:47:55.460Z,227.73825503355704
2024-02-17T14:51:16.176Z,244.40939597315437
2024-02-17T14:54:40.896Z,217.73154362416108
2024-02-17T14:58:03.722Z,235.16778523489933
2024-02-17T15:01:24.249Z,235.63087248322148
2024-02-17T15:04:45.108Z,233.53691275167785
2024-02-17T15:08:04.750Z,168.64429530201343
2024-02-17T15:11:24.815Z,222.2214765100671
2024-02-17T15:22:48.681Z,257.2953020134228
2024-02-17T15:36:44.821Z,279.46308724832215
2024-02-17T15:40:05.413Z,264.5838926174497
2024-02-17T15:43:25.181Z,238.63087248322148
2024-02-17T15:46:46.003Z,230.75838926174498
2024-02-17T15:50:06.093Z,204.8255033557047
2024-02-17T15:53:27.343Z,225.80536912751677
2024-02-17T15:56:48.916Z,230.8993288590604
2024-02-17T16:00:09.796Z,273.4026845637584
2024-02-17T16:03:31.173Z,350.758389261745
2024-02-17T16:06:51.592Z,397.0469798657718
2024-02-17T16:10:12.174Z,449.13422818791946
2024-02-17T16:13:32.861Z,319.51006711409394
2024-02-17T16:16:53.834Z,275.93959731543623
2024-02-17T16:20:15.122Z,353.1744966442953
2024-02-17T16:23:36.188Z,397.99328859060404
2024-02-17T16:26:56.143Z,557.8993288590603
2024-02-17T16:30:17.190Z,591.4228187919463
2024-02-17T16:33:38.377Z,526.1879194630873
2024-02-17T16:36:59.212Z,500.4563758389262
2024-02-17T16:40:20.614Z,2065.026845637584
2024-02-17T16:43:41.472Z,1985.476510067114
2024-02-17T16:47:02.990Z,1579.288590604027
2024-02-17T16:50:25.596Z,1646.234899328859
2024-02-17T16:54:22.011Z,1762.288590604027
2024-02-17T16:57:45.611Z,2665.006711409396
2024-02-17T17:02:07.043Z,2553.7852348993288
2024-02-17T17:05:32.553Z,1350.241610738255
2024-02-17T17:08:59.957Z,1006.751677852349
2024-02-17T17:12:26.477Z,840.0805369127517
2024-02-17T17:15:48.847Z,725.6375838926175
2024-02-17T17:19:12.772Z,644.6375838926175
2024-02-17T17:22:42.409Z,680.6778523489933
2024-02-17T17:26:07.201Z,690.2416107382551
2024-02-17T17:29:28.923Z,781.6912751677852
2024-02-17T17:32:49.224Z,740.51677852349
2024-02-17T17:36:09.161Z,781.0268456375838
2024-02-17T17:39:29.683Z,746.3557046979865
2024-02-17T17:43:39.599Z,681.503355704698
2024-02-17T17:47:00.573Z,760.1677852348994
2024-02-17T17:50:20.694Z,739.6912751677852
2024-02-17T17:53:41.881Z,788.2147651006711
2024-02-17T17:58:57.044Z,764.8187919463087
2024-02-17T18:02:16.597Z,846.5637583892617
2024-02-17T18:05:36.762Z,972.2214765100671
2024-02-17T18:08:58.055Z,2011.6912751677853
2024-02-17T18:15:28.337Z,3794.1744966442952
2024-02-17T18:19:27.753Z,3843.48322147651
2024-02-17T18:22:48.276Z,3622.8120805369126
2024-02-17T18:26:09.060Z,3511.530201342282
2024-02-17T18:32:34.098Z,2966.818791946309
2024-02-17T18:35:54.116Z,2758.06711409396
2024-02-17T18:39:14.046Z,2630.8791946308725
2024-02-17T18:42:34.160Z,2591.9395973154365
2024-02-17T18:50:11.059Z,2550.3020134228186
2024-02-17T18:54:57.669Z,2352.1409395973155
2024-02-17T19:01:05.689Z,2470.731543624161
2024-02-17T19:04:25.619Z,2439.6644295302012
2024-02-17T19:07:45.804Z,2629.1677852348994
2024-02-17T19:11:06.203Z,2738.8389261744965
2024-02-17T19:14:26.623Z,2736.6040268456377
2024-02-17T19:17:46.843Z,2795.6577181208054
2024-02-17T19:21:06.577Z,2630.6778523489934
2024-02-17T19:24:26.574Z,2469.8456375838928
2024-02-17T19:27:47.860Z,2385.181208053691
2024-02-17T19:31:08.546Z,2365.06711409396
2024-02-17T19:40:29.714Z,2717.718120805369
2024-02-17T19:43:50.349Z,2701.4093959731545
2024-02-17T19:47:10.935Z,3018.6644295302012
2024-02-17T19:50:31.413Z,3213.3020134228186
2024-02-17T19:56:25.197Z,3502.953020134228
2024-02-17T19:59:45.354Z,3363.3020134228186
2024-02-17T20:03:05.943Z,3183.9060402684563
2024-02-17T20:09:05.322Z,2740.006711409396
2024-02-17T20:12:25.398Z,2673.020134228188
2024-02-17T20:16:44.704Z,2555.6375838926174
2024-02-17T20:20:05.023Z,2521.751677852349
2024-02-17T20:23:25.425Z,2580.3422818791946
2024-02-17T20:26:46.213Z,2568.3221476510066
2024-02-17T20:30:05.759Z,2294.557046979866
2024-02-17T20:33:25.923Z,2168.9395973154365
2024-02-17T20:38:28.741Z,2097.9664429530203
2024-02-17T20:41:48.372Z,2226.7852348993288
2024-02-17T20:45:08.596Z,2123.4563758389263
2024-02-17T20:48:28.512Z,2036.758389261745
2024-02-17T20:51:49.416Z,1881.8859060402685
2024-02-17T20:55:09.434Z,1939.3087248322147
2024-02-17T20:58:29.306Z,1968.6241610738255
2024-02-17T21:01:49.769Z,2011.7919463087248
2024-02-17T21:05:09.861Z,2245.55033557047
2024-02-17T21:08:29.317Z,2422.8724832214766
2024-02-17T21:12:03.937Z,2457.3221476510066
2024-02-17T21:15:24.386Z,2447.3154362416108
2024-02-17T21:18:44.988Z,2329.6711409395975
2024-02-17T21:22:43.275Z,2301.1006711409395
2024-02-17T21:26:02.835Z,2169.0805369127515
2024-02-17T21:29:22.676Z,2265.040268456376
2024-02-17T21:33:24.753Z,2247.9463087248323
2024-02-17T21:36:45.423Z,2234.6174496644294
2024-02-17T21:40:06.172Z,2267.4161073825503
2024-02-17T21:48:25.835Z,2525.496644295302
2024-02-17T21:53:38.389Z,2524.93288590604
2024-02-17T21:58:45.412Z,2684.6778523489934
2024-02-17T22:02:08.432Z,2776.6510067114095
2024-02-17T22:05:29.116Z,2595.7449664429532
2024-02-17T22:08:49.556Z,2593.6711409395975
2024-02-17T22:15:05.430Z,2583.5838926174497
2024-02-17T22:19:21.689Z,2466.5637583892617
2024-02-17T22:22:42.664Z,2430.7651006711408
2024-02-17T22:26:02.613Z,2587.8926174496646
2024-02-17T22:29:22.891Z,2595.48322147651
2024-02-17T22:32:42.756Z,2585.718120805369
2024-02-17T22:38:25.564Z,2744.4563758389263
2024-02-17T22:41:45.874Z,2625.7852348993288
2024-02-17T22:45:06.007Z,2575.55033557047
2024-02-17T22:48:26.572Z,2576.9194630872485
2024-02-17T22:51:47.884Z,2624.3758389261743
2024-02-17T22:55:24.909Z,2699.2751677852348
2024-02-17T22:58:45.480Z,2729.2953020134228
2024-02-17T23:02:07.396Z,2769.9261744966443
2024-02-17T23:05:27.463Z,2677.288590604027
2024-02-17T23:08:48.127Z,2717.4161073825503
2024-02-17T23:12:07.970Z,2576.8590604026845
2024-02-17T23:15:27.973Z,2548.1476510067114
2024-02-17T23:18:48.422Z,2504.3355704697988
2024-02-17T23:22:08.642Z,2517.8859060402683
2024-02-17T23:25:28.957Z,2522.3758389261743
2024-02-17T23:28:49.412Z,2484.7449664429532
2024-02-17T23:32:09.573Z,2995.5906040268455
2024-02-17T23:35:29.593Z,3095.4161073825503
2024-02-17T23:38:49.871Z,3113.959731543624
2024-02-17T23:42:10.487Z,3186.201342281879
2024-02-17T23:45:46.864Z,3114.3624161073826
2024-02-17T23:49:07.114Z,3118.55033557047
2024-02-17T23:53:47.905Z,2809.2080536912754
2024-02-17T23:57:08.264Z,2594.1140939597317
